Time;durP1;ratioP1;P1;durP2;ratioP2;P2;SDS_P1;SDS_P2;PMS_P1;PMS_P2;Temp;Humidity;BMP_temperature;BMP_pressure;BME280_temperature;BME280_humidity;BME280_pressure;Samples;Min_cycle;Max_cycle;Signal;HPM_P1;HPM_P2
2023/03/20 00:02:17;;;;;;;;;19.50;18.50;;;;;11.38;72.09;100102.44;5116202;28;8852;-61
2023/03/20 00:04:45;;;;;;;;;22.50;20.75;;;;;11.34;72.19;100097.50;5116284;28;8824;-62
2023/03/20 00:07:12;;;;;;;;;18.50;15.75;;;;;11.30;72.58;100101.38;5116111;28;8943;-59
2023/03/20 00:09:41;;;;;;;;;21.25;18.75;;;;;11.27;72.74;100113.13;5116579;28;8820;-59
2023/03/20 00:12:08;;;;;;;;;15.50;11.00;;;;;11.23;72.46;100106.34;5116374;28;8839;-60
2023/03/20 00:14:36;;;;;;;;;23.00;15.00;;;;;11.18;73.19;100107.69;5116541;28;8828;-58
2023/03/20 00:17:04;;;;;;;;;25.00;21.00;;;;;11.14;72.69;100107.09;5116490;28;8831;-61
2023/03/20 00:19:32;;;;;;;;;24.00;21.00;;;;;11.11;72.97;100114.47;5116716;28;8824;-61
2023/03/20 00:22:00;;;;;;;;;20.25;17.75;;;;;11.08;73.29;100120.06;5116246;28;8828;-61
2023/03/20 00:24:27;;;;;;;;;19.75;17.00;;;;;11.04;73.27;100115.91;5115733;28;8831;-61
2023/03/20 00:26:55;;;;;;;;;22.00;18.50;;;;;11.01;73.33;100114.34;5115863;28;8819;-59
2023/03/20 00:29:23;;;;;;;;;23.50;18.50;;;;;10.99;73.27;100118.94;5103684;28;8812;-59
2023/03/20 00:31:50;;;;;;;;;17.25;16.25;;;;;10.98;73.03;100121.72;5116059;28;8835;-61
2023/03/20 00:34:19;;;;;;;;;11.00;7.25;;;;;10.96;73.12;100132.53;5115783;28;8839;-61
2023/03/20 00:36:47;;;;;;;;;20.00;18.25;;;;;10.90;73.57;100125.00;5115511;28;8839;-61
2023/03/20 00:39:15;;;;;;;;;20.25;18.50;;;;;10.84;73.31;100136.13;5115517;28;8828;-59
2023/03/20 00:41:43;;;;;;;;;24.50;20.50;;;;;10.79;73.41;100134.78;5115894;28;8840;-61
2023/03/20 00:44:10;;;;;;;;;29.25;27.75;;;;;10.75;73.87;100135.97;5115917;28;8840;-61
2023/03/20 00:46:38;;;;;;;;;17.50;12.75;;;;;10.73;74.21;100132.59;5116180;28;8851;-61
2023/03/20 00:49:06;;;;;;;;;29.75;23.50;;;;;10.70;73.80;100140.84;5117116;28;8854;-59
2023/03/20 00:51:35;;;;;;;;;24.00;18.00;;;;;10.68;74.13;100135.63;5120060;28;8820;-60
2023/03/20 00:54:03;;;;;;;;;31.50;23.00;;;;;10.65;73.72;100145.66;5120071;28;8878;-60
2023/03/20 00:56:30;;;;;;;;;31.25;26.50;;;;;10.63;73.85;100136.94;5120565;28;8828;-59
2023/03/20 00:58:58;;;;;;;;;21.00;18.50;;;;;10.59;74.07;100131.00;5120019;28;8870;-59
2023/03/20 01:01:26;;;;;;;;;26.00;24.25;;;;;10.54;74.02;100133.16;5120124;28;8812;-59
2023/03/20 01:03:53;;;;;;;;;23.00;20.00;;;;;10.50;74.74;100126.41;5120046;28;9544;-59
2023/03/20 01:06:21;;;;;;;;;29.60;28.20;;;;;10.46;74.28;100130.25;5119943;28;8843;-59
2023/03/20 01:08:49;;;;;;;;;24.50;21.75;;;;;10.45;74.02;100138.34;5119740;28;8842;-59
2023/03/20 01:11:17;;;;;;;;;27.40;22.20;;;;;10.42;74.71;100133.25;5119516;28;8928;-59
2023/03/20 01:13:44;;;;;;;;;29.40;28.00;;;;;10.41;74.27;100142.22;5119631;28;8824;-59
2023/03/20 01:16:12;;;;;;;;;19.75;15.50;;;;;10.38;74.47;100143.28;5119702;28;9535;-59
2023/03/20 01:18:40;;;;;;;;;23.00;19.25;;;;;10.36;74.58;100134.56;5119354;28;8850;-59
2023/03/20 01:21:07;;;;;;;;;25.20;21.40;;;;;10.33;74.52;100126.81;5119378;28;9905;-60
2023/03/20 01:23:35;;;;;;;;;24.20;18.00;;;;;10.30;74.75;100123.53;5119927;28;8817;-59
2023/03/20 01:26:03;;;;;;;;;23.50;20.75;;;;;10.27;74.50;100139.72;5119873;28;8828;-59
2023/03/20 01:28:31;;;;;;;;;17.25;13.00;;;;;10.24;74.97;100132.00;5119283;28;8820;-59
2023/03/20 01:30:59;;;;;;;;;23.25;21.00;;;;;10.22;74.60;100129.44;5119041;28;8870;-59
2023/03/20 01:33:28;;;;;;;;;18.75;17.25;;;;;10.22;74.46;100131.22;5118979;28;8847;-59
2023/03/20 01:35:56;;;;;;;;;22.50;20.50;;;;;10.19;74.58;100137.66;5119352;28;9486;-59
2023/03/20 01:44:43;;;;;;;;;19.25;17.50;;;;;9.98;75.18;100144.53;5119577;28;8773;-59
2023/03/20 01:47:11;;;;;;;;;21.75;21.00;;;;;9.96;75.30;100145.63;5118674;28;8884;-59
2023/03/20 01:49:38;;;;;;;;;25.50;22.50;;;;;9.94;75.00;100159.00;5118536;28;8820;-59
2023/03/20 01:52:06;;;;;;;;;21.60;20.20;;;;;9.92;75.52;100165.41;5117511;28;8925;-59
2023/03/20 01:54:34;;;;;;;;;22.00;20.25;;;;;9.89;75.03;100165.66;5118380;28;8917;-59
2023/03/20 01:57:01;;;;;;;;;20.25;17.75;;;;;9.87;75.09;100165.75;5119077;28;8832;-60
2023/03/20 01:59:29;;;;;;;;;22.25;18.50;;;;;9.84;75.08;100165.97;5118624;28;8832;-59
2023/03/20 02:01:57;;;;;;;;;11.50;11.00;;;;;9.83;75.09;100160.75;5118938;28;8904;-59
2023/03/20 02:04:24;;;;;;;;;22.50;20.25;;;;;9.82;75.10;100165.25;5119040;28;8858;-59
2023/03/20 02:06:52;;;;;;;;;18.50;15.25;;;;;9.82;75.16;100167.06;5119077;28;8856;-59
2023/03/20 02:09:20;;;;;;;;;13.75;12.50;;;;;9.82;75.46;100164.38;5118874;28;8820;-59
2023/03/20 02:11:48;;;;;;;;;19.75;17.00;;;;;9.80;75.48;100161.84;5118910;28;8840;-60
2023/03/20 02:14:16;;;;;;;;;19.75;18.00;;;;;9.79;75.28;100159.31;5118469;28;9769;-59
2023/03/20 02:16:43;;;;;;;;;11.00;9.50;;;;;9.78;75.19;100158.44;5123975;27;9480;-60
2023/03/20 02:19:11;;;;;;;;;21.50;19.50;;;;;9.79;74.84;100152.16;5126691;27;8852;-60
2023/03/20 02:21:39;;;;;;;;;17.00;15.75;;;;;9.81;75.24;100149.41;5118217;28;8812;-59
2023/03/20 02:24:07;;;;;;;;;15.25;14.50;;;;;9.83;75.09;100147.47;5118744;28;9512;-59
2023/03/20 02:26:35;;;;;;;;;18.00;16.50;;;;;9.83;74.83;100150.13;5118754;28;8832;-59
2023/03/20 02:29:03;;;;;;;;;21.60;18.80;;;;;9.82;74.95;100151.09;5118625;28;8836;-59
2023/03/20 02:31:31;;;;;;;;;19.50;16.50;;;;;9.78;74.80;100158.44;5118641;28;8855;-59
2023/03/20 02:33:59;;;;;;;;;15.50;12.75;;;;;9.76;75.23;100155.06;5118097;28;8816;-61
2023/03/20 02:36:27;;;;;;;;;18.25;18.25;;;;;9.74;74.96;100164.09;5117601;28;8838;-59
2023/03/20 02:38:55;;;;;;;;;19.00;18.20;;;;;9.71;75.51;100170.47;5118241;28;8828;-59
2023/03/20 02:41:22;;;;;;;;;15.00;13.50;;;;;9.69;75.09;100163.56;5118288;28;8840;-59
2023/03/20 02:43:50;;;;;;;;;20.00;15.25;;;;;9.68;74.72;100172.50;5118485;28;8834;-61
2023/03/20 02:46:18;;;;;;;;;21.50;19.75;;;;;9.64;75.34;100182.53;5119521;27;9462;-61
2023/03/20 02:48:46;;;;;;;;;20.00;18.00;;;;;9.61;75.34;100177.44;5130646;27;8846;-61
2023/03/20 02:51:13;;;;;;;;;17.50;13.00;;;;;9.58;75.52;100177.63;5118215;28;8847;-62
2023/03/20 02:53:41;;;;;;;;;17.00;15.50;;;;;9.54;75.51;100170.84;5117663;28;8828;-61
2023/03/20 02:56:09;;;;;;;;;13.25;9.00;;;;;9.52;75.48;100162.16;5117847;28;8827;-59
2023/03/20 02:58:36;;;;;;;;;14.25;14.25;;;;;9.48;75.75;100176.59;5118041;28;8834;-61
2023/03/20 03:01:04;;;;;;;;;2.50;1.00;;;;;9.47;75.45;100166.94;5117825;28;8820;-61
2023/03/20 03:03:33;;;;;;;;;14.50;11.00;;;;;9.46;75.80;100161.72;5117757;28;8854;-60
2023/03/20 03:06:00;;;;;;;;;12.00;8.50;;;;;9.45;75.51;100166.22;5117509;28;8842;-61
2023/03/20 03:08:28;;;;;;;;;12.00;12.00;;;;;9.46;75.33;100167.03;5118038;28;8891;-61
2023/03/20 03:10:56;;;;;;;;;11.00;9.75;;;;;9.45;75.45;100166.22;5116997;28;8820;-61
2023/03/20 03:13:24;;;;;;;;;13.00;11.00;;;;;9.45;75.56;100175.97;5117361;28;8835;-62
2023/03/20 03:15:52;;;;;;;;;15.25;12.00;;;;;9.43;75.67;100176.06;5117132;28;8823;-59
2023/03/20 03:18:19;;;;;;;;;10.00;8.75;;;;;9.43;75.42;100178.72;5131676;27;8834;-60
2023/03/20 03:20:47;;;;;;;;;10.00;10.00;;;;;9.43;75.55;100181.38;5116844;28;8804;-60
2023/03/20 03:23:15;;;;;;;;;9.25;9.25;;;;;9.42;75.47;100185.00;5117401;28;8820;-62
2023/03/20 03:25:42;;;;;;;;;8.00;5.50;;;;;9.41;75.46;100188.63;5117370;28;8824;-59
2023/03/20 03:28:10;;;;;;;;;8.50;8.00;;;;;9.40;75.41;100186.94;5117276;28;8848;-60
2023/03/20 03:30:38;;;;;;;;;12.00;9.25;;;;;9.39;75.03;100189.69;5117234;28;8820;-61
2023/03/20 03:33:05;;;;;;;;;8.25;7.75;;;;;9.37;74.95;100187.16;5117274;28;8824;-61
2023/03/20 03:35:35;;;;;;;;;12.00;10.00;;;;;9.35;75.28;100190.88;5116833;28;8836;-60
2023/03/20 03:38:03;;;;;;;;;9.50;8.00;;;;;9.32;75.13;100191.09;5117244;28;8836;-60
2023/03/20 03:40:31;;;;;;;;;9.75;9.25;;;;;9.26;75.83;100192.38;5116833;28;8835;-61
2023/03/20 03:42:58;;;;;;;;;5.00;4.00;;;;;9.23;75.47;100189.94;5118064;28;8844;-61
2023/03/20 03:45:26;;;;;;;;;6.00;6.00;;;;;9.20;75.63;100191.97;5117251;28;8812;-61
2023/03/20 03:47:54;;;;;;;;;7.00;5.75;;;;;9.17;75.16;100187.72;5131346;27;9518;-58
2023/03/20 03:50:22;;;;;;;;;11.00;8.00;;;;;9.17;75.48;100187.72;5116117;28;8823;-60
2023/03/20 03:52:51;;;;;;;;;12.50;9.25;;;;;9.17;75.61;100165.59;5116416;28;9540;-60
2023/03/20 03:55:18;;;;;;;;;4.25;3.75;;;;;9.17;75.30;100157.63;5116262;28;8846;-58
2023/03/20 03:57:46;;;;;;;;;9.25;7.50;;;;;9.17;75.96;100157.63;5116604;28;8836;-60
2023/03/20 04:00:15;;;;;;;;;7.50;6.75;;;;;9.16;75.41;100156.78;5116264;28;8950;-61
2023/03/20 04:02:43;;;;;;;;;9.00;7.00;;;;;9.15;75.27;100157.75;5116469;28;8844;-60
2023/03/20 04:05:10;;;;;;;;;7.00;6.50;;;;;9.13;74.92;100143.69;5116417;28;8828;-58
2023/03/20 04:07:38;;;;;;;;;5.50;4.00;;;;;9.13;75.32;100132.25;5116471;28;8890;-59
2023/03/20 04:10:06;;;;;;;;;10.80;9.60;;;;;9.10;75.50;100135.97;5116612;28;8842;-60
2023/03/20 04:15:43;;;;;;;;;6.75;6.50;;;;;9.03;75.22;100132.03;5116461;28;8776;-60
2023/03/20 04:18:11;;;;;;;;;6.50;5.00;;;;;9.02;75.55;100140.09;5116358;28;8843;-62
2023/03/20 04:20:40;;;;;;;;;8.00;7.00;;;;;8.99;75.33;100129.72;5116203;28;8832;-60
2023/03/20 04:23:07;;;;;;;;;8.00;6.75;;;;;8.96;75.61;100121.97;5116311;28;8848;-62
2023/03/20 04:25:35;;;;;;;;;9.20;9.00;;;;;8.92;75.28;100128.44;5115460;28;8812;-60
2023/03/20 04:28:03;;;;;;;;;10.50;9.50;;;;;8.88;75.52;100133.09;5114110;28;8820;-60
2023/03/20 04:30:31;;;;;;;;;9.00;7.50;;;;;8.87;75.39;100144.69;5115916;28;9824;-61
2023/03/20 04:32:59;;;;;;;;;6.75;5.75;;;;;8.87;75.92;100157.97;5116063;28;8820;-61
2023/03/20 04:35:27;;;;;;;;;11.50;6.00;;;;;8.88;75.63;100162.31;5115952;28;8920;-61
2023/03/20 04:37:54;;;;;;;;;9.75;9.00;;;;;8.88;75.43;100154.34;5115867;28;8823;-60
2023/03/20 04:40:24;;;;;;;;;8.00;7.25;;;;;8.89;75.63;100155.22;5114503;28;8851;-60
2023/03/20 04:42:51;;;;;;;;;7.50;7.00;;;;;8.88;75.42;100157.00;5114735;28;8920;-59
2023/03/20 04:45:19;;;;;;;;;6.00;5.75;;;;;8.89;75.32;100145.44;5113493;28;8836;-62
2023/03/20 04:47:47;;;;;;;;;6.00;6.00;;;;;8.89;75.30;100152.56;5115992;28;9524;-61
2023/03/20 04:50:14;;;;;;;;;9.40;5.20;;;;;8.90;75.14;100148.94;5115422;28;9536;-59
2023/03/20 04:52:42;;;;;;;;;1.00;1.00;;;;;8.90;75.24;100152.44;5115618;28;9525;-62
2023/03/20 04:55:10;;;;;;;;;9.75;8.50;;;;;8.89;75.28;100156.03;5115768;28;8843;-61
2023/03/20 04:57:38;;;;;;;;;5.50;5.50;;;;;8.90;74.98;100151.59;5115444;28;8848;-61
2023/03/20 05:00:05;;;;;;;;;9.75;7.00;;;;;8.90;75.25;100148.94;5114667;28;8824;-60
2023/03/20 05:02:33;;;;;;;;;9.00;6.75;;;;;8.90;75.18;100140.97;5112656;28;8836;-60
2023/03/20 05:05:01;;;;;;;;;9.00;8.50;;;;;8.89;75.06;100129.50;5114104;28;8835;-61
2023/03/20 05:07:29;;;;;;;;;7.00;6.75;;;;;8.86;74.75;100126.19;5115243;28;8800;-61
2023/03/20 05:09:57;;;;;;;;;6.75;4.00;;;;;8.83;75.32;100126.44;5115543;28;8826;-61
2023/03/20 05:12:26;;;;;;;;;11.00;8.00;;;;;8.78;75.53;100124.09;5115478;28;8820;-61
2023/03/20 05:14:54;;;;;;;;;12.80;11.80;;;;;8.75;75.35;100126.09;5115087;28;8854;-61
2023/03/20 05:17:22;;;;;;;;;8.00;6.75;;;;;8.70;75.49;100117.59;5114809;28;8848;-60
2023/03/20 05:19:50;;;;;;;;;6.75;5.50;;;;;8.66;75.39;100122.28;5115252;28;8832;-61
2023/03/20 05:22:17;;;;;;;;;8.20;6.40;;;;;8.62;75.55;100119.94;5114641;28;8832;-62
2023/03/20 05:24:45;;;;;;;;;5.75;5.75;;;;;8.61;75.81;100127.06;5114944;28;8861;-61
2023/03/20 05:27:13;;;;;;;;;12.00;10.60;;;;;8.58;75.74;100124.59;5115137;28;8828;-61
2023/03/20 05:29:40;;;;;;;;;7.00;6.80;;;;;8.56;75.57;100123.88;5115198;28;8832;-61
2023/03/20 05:32:08;;;;;;;;;10.75;8.00;;;;;8.54;75.88;100123.13;5115269;28;8832;-59
2023/03/20 05:34:35;;;;;;;;;17.00;14.00;;;;;8.53;75.36;100120.56;5115657;28;8828;-61
2023/03/20 05:37:03;;;;;;;;;7.00;5.50;;;;;8.52;75.61;100126.84;5117897;28;8836;-60
2023/03/20 05:39:31;;;;;;;;;6.40;5.40;;;;;8.50;75.64;100131.41;5117521;28;8840;-61
2023/03/20 05:41:58;;;;;;;;;8.40;7.00;;;;;8.50;75.96;100124.28;5117364;28;8823;-60
2023/03/20 05:44:27;;;;;;;;;9.20;9.20;;;;;8.50;75.52;100126.94;5118662;28;9543;-59
2023/03/20 05:46:54;;;;;;;;;10.00;9.20;;;;;8.49;75.63;100127.91;5118316;28;9500;-58
2023/03/20 05:49:22;;;;;;;;;9.20;7.40;;;;;8.49;75.43;100124.38;5117576;28;8870;-60
2023/03/20 05:51:50;;;;;;;;;10.00;9.00;;;;;8.49;75.33;100135.00;5117374;28;8835;-61
2023/03/20 05:54:17;;;;;;;;;9.25;7.00;;;;;8.50;75.19;100144.69;5098416;28;8814;-62
2023/03/20 05:56:46;;;;;;;;;7.80;6.00;;;;;8.50;75.45;100148.16;5107792;28;8850;-59
2023/03/20 05:59:13;;;;;;;;;8.60;7.40;;;;;8.50;75.59;100156.13;5117845;28;8846;-59
2023/03/20 06:01:41;;;;;;;;;10.00;8.50;;;;;8.52;75.59;100162.19;5115291;28;8852;-59
2023/03/20 06:04:08;;;;;;;;;11.50;8.50;;;;;8.53;75.00;100160.38;5115910;28;8921;-59
2023/03/20 06:06:38;;;;;;;;;7.40;7.00;;;;;8.56;75.00;100155.72;5117585;28;8850;-60
2023/03/20 06:09:06;;;;;;;;;7.40;7.00;;;;;8.61;75.25;100155.41;5116706;28;8886;-62
2023/03/20 06:11:34;;;;;;;;;8.20;6.60;;;;;8.64;74.69;100149.88;5115536;28;9509;-59
2023/03/20 06:14:04;;;;;;;;;11.20;8.60;;;;;8.65;74.74;100151.59;5115476;28;8839;-58
2023/03/20 06:16:31;;;;;;;;;9.40;9.00;;;;;8.66;74.41;100154.13;5115066;28;8868;-60
2023/03/20 06:18:59;;;;;;;;;4.40;4.00;;;;;8.66;74.86;100159.44;5116209;28;8973;-58
2023/03/20 06:21:27;;;;;;;;;10.00;9.00;;;;;8.64;74.43;100153.38;5116039;28;8843;-59
2023/03/20 06:23:56;;;;;;;;;12.25;9.75;;;;;8.64;75.08;100149.88;5116027;28;8840;-59
2023/03/20 06:26:24;;;;;;;;;7.00;6.40;;;;;8.64;74.71;100149.88;5115912;28;8836;-62
2023/03/20 06:28:52;;;;;;;;;10.40;9.20;;;;;8.65;74.86;100147.13;5116056;28;8808;-59
2023/03/20 06:31:20;;;;;;;;;11.40;9.00;;;;;8.67;75.00;100145.22;5116448;28;8859;-59
2023/03/20 06:33:48;;;;;;;;;7.80;7.40;;;;;8.68;74.84;100152.22;5115455;28;8847;-58
2023/03/20 06:36:16;;;;;;;;;10.00;10.00;;;;;8.71;75.19;100151.16;5115841;28;8843;-59
2023/03/20 06:38:44;;;;;;;;;10.80;9.40;;;;;8.74;74.70;100148.31;5115106;28;8836;-59
2023/03/20 06:41:11;;;;;;;;;11.60;9.80;;;;;8.77;74.10;100156.91;5115004;28;8820;-59
2023/03/20 06:43:54;;;;;;;;;8.50;7.50;;;;;8.81;74.56;100162.88;5116296;28;9496;-59
2023/03/20 06:46:22;;;;;;;;;10.00;9.50;;;;;8.84;74.72;100166.16;5113980;28;8839;-59
2023/03/20 06:48:50;;;;;;;;;13.50;11.50;;;;;8.87;74.40;100173.91;5115203;28;8867;-60
2023/03/20 06:51:18;;;;;;;;;9.80;9.40;;;;;8.87;74.63;100175.69;5115913;28;8858;-60
2023/03/20 06:53:46;;;;;;;;;12.75;12.50;;;;;8.88;74.02;100172.09;5115833;28;8858;-59
2023/03/20 06:56:14;;;;;;;;;12.75;9.75;;;;;8.88;74.44;100172.94;5115591;28;9611;-59
2023/03/20 06:58:41;;;;;;;;;10.00;9.20;;;;;8.90;74.29;100181.66;5114277;28;8835;-59
2023/03/20 07:01:09;;;;;;;;;7.50;7.50;;;;;8.94;74.13;100176.97;5113638;28;8844;-62
2023/03/20 07:03:37;;;;;;;;;10.40;9.20;;;;;8.96;74.31;100180.41;5111981;28;8913;-60
2023/03/20 07:06:05;;;;;;;;;9.75;7.50;;;;;8.97;74.08;100177.59;5113062;28;8847;-59
2023/03/20 07:08:33;;;;;;;;;9.00;8.00;;;;;8.98;74.57;100181.97;5114160;28;8836;-58
2023/03/20 07:11:03;;;;;;;;;9.20;7.00;;;;;9.01;74.05;100179.13;5112927;28;8839;-61
2023/03/20 07:13:32;;;;;;;;;7.00;6.50;;;;;9.04;73.75;100181.53;5110866;28;8831;-62
2023/03/20 07:16:00;;;;;;;;;12.40;11.00;;;;;9.07;73.60;100181.34;5113068;28;8904;-61
2023/03/20 07:18:31;;;;;;;;;6.80;6.00;;;;;9.10;73.68;100183.78;5112561;28;8883;-61
2023/03/20 07:21:00;;;;;;;;;9.40;9.00;;;;;9.11;73.58;100177.50;5113146;28;8819;-61
2023/03/20 07:23:28;;;;;;;;;13.80;11.20;;;;;9.13;73.44;100180.91;5112979;28;8881;-62
2023/03/20 07:25:56;;;;;;;;;12.50;12.00;;;;;9.15;73.84;100192.28;5113623;28;8848;-61
2023/03/20 07:28:24;;;;;;;;;9.00;8.50;;;;;9.21;73.51;100193.66;5113663;28;8867;-59
2023/03/20 07:30:52;;;;;;;;;12.50;9.50;;;;;9.27;73.31;100188.75;5113286;28;8962;-61
2023/03/20 07:33:20;;;;;;;;;10.25;9.50;;;;;9.33;73.40;100195.47;5114067;28;8823;-61
2023/03/20 07:35:48;;;;;;;;;8.00;7.00;;;;;9.39;72.69;100198.53;5112275;28;8974;-59
2023/03/20 07:38:16;;;;;;;;;10.00;9.25;;;;;9.44;72.84;100209.69;5113445;28;8878;-58
2023/03/20 07:40:44;;;;;;;;;10.00;10.00;;;;;9.46;72.65;100202.47;5113242;28;8866;-59
2023/03/20 07:43:12;;;;;;;;;7.00;6.75;;;;;9.49;72.81;100201.41;5112685;28;8838;-60
2023/03/20 07:45:40;;;;;;;;;9.00;7.00;;;;;9.52;72.70;100215.31;5112154;28;9516;-60
2023/03/20 07:48:08;;;;;;;;;6.50;6.50;;;;;9.54;72.66;100218.72;5110853;28;8848;-58
2023/03/20 07:50:35;;;;;;;;;9.50;8.50;;;;;9.58;72.85;100225.50;5112500;28;8844;-59
2023/03/20 07:53:03;;;;;;;;;8.00;7.50;;;;;9.63;72.68;100219.88;5110076;28;8848;-61
2023/03/20 07:55:31;;;;;;;;;9.25;6.25;;;;;9.68;72.24;100215.91;5108069;28;8839;-61
2023/03/20 07:57:59;;;;;;;;;6.25;5.50;;;;;9.76;71.88;100213.56;5106491;28;8844;-60
2023/03/20 08:00:27;;;;;;;;;8.50;8.50;;;;;9.82;72.21;100202.50;5110672;28;8831;-58
2023/03/20 08:02:56;;;;;;;;;7.50;6.75;;;;;9.89;72.15;100202.88;5110717;28;8951;-60
2023/03/20 08:05:24;;;;;;;;;9.00;9.00;;;;;9.95;71.66;100203.28;5111596;28;8913;-59
2023/03/20 08:07:53;;;;;;;;;8.50;7.00;;;;;9.97;71.40;100212.00;5113771;28;8877;-59
2023/03/20 08:10:21;;;;;;;;;7.00;6.00;;;;;9.98;71.50;100208.38;5114582;28;8854;-60
2023/03/20 08:12:49;;;;;;;;;6.00;4.00;;;;;9.99;71.24;100211.88;5112688;28;8823;-60
2023/03/20 08:15:17;;;;;;;;;4.00;4.00;;;;;10.02;71.26;100199.19;5112121;28;8827;-59
2023/03/20 08:17:45;;;;;;;;;3.50;3.50;;;;;10.11;70.81;100203.03;5110767;28;8844;-61
2023/03/20 08:20:13;;;;;;;;;6.75;6.00;;;;;10.24;70.67;100203.84;5112250;28;8852;-60
2023/03/20 08:22:41;;;;;;;;;5.50;5.50;;;;;10.38;70.36;100209.84;5111413;28;8852;-59
2023/03/20 08:25:09;;;;;;;;;5.00;5.00;;;;;10.58;70.15;100206.53;5112735;28;8970;-61
2023/03/20 08:27:37;;;;;;;;;6.00;6.00;;;;;10.74;69.89;100206.22;5112857;28;8840;-59
2023/03/20 08:30:05;;;;;;;;;3.25;3.25;;;;;10.80;69.75;100206.63;5113046;28;8987;-59
2023/03/20 08:32:33;;;;;;;;;6.25;4.00;;;;;10.85;69.30;100204.41;5113652;28;8831;-59
2023/03/20 08:35:01;;;;;;;;;6.50;6.00;;;;;10.85;69.20;100207.09;5112402;28;8847;-59
2023/03/20 08:37:29;;;;;;;;;7.75;6.00;;;;;10.87;69.63;100212.31;5112698;28;8966;-61
2023/03/20 08:39:57;;;;;;;;;5.00;5.00;;;;;10.89;69.88;100219.22;5112056;28;8866;-60
2023/03/20 08:42:25;;;;;;;;;4.00;4.00;;;;;10.90;69.45;100220.91;5114380;28;8859;-61
2023/03/20 08:44:53;;;;;;;;;4.75;3.25;;;;;10.85;69.46;100225.72;5110865;28;9562;-59
2023/03/20 08:47:21;;;;;;;;;4.50;3.00;;;;;10.78;69.14;100221.84;5110973;28;8836;-59
2023/03/20 08:49:49;;;;;;;;;4.00;4.00;;;;;10.75;69.00;100226.53;5112391;28;8986;-60
2023/03/20 08:52:17;;;;;;;;;4.00;4.00;;;;;10.71;69.29;100231.25;5112434;28;8853;-59
2023/03/20 08:54:45;;;;;;;;;4.00;3.00;;;;;10.69;69.05;100233.19;5112520;28;8839;-59
2023/03/20 08:57:13;;;;;;;;;5.25;3.75;;;;;10.72;69.53;100221.47;5112853;28;8828;-62
2023/03/20 08:59:41;;;;;;;;;6.00;4.00;;;;;10.76;68.82;100233.59;5113200;28;9535;-60
2023/03/20 09:02:10;;;;;;;;;7.00;5.50;;;;;10.78;68.69;100231.66;5113130;28;8862;-58
2023/03/20 09:04:38;;;;;;;;;5.50;4.00;;;;;10.75;69.01;100232.75;5112126;28;8984;-60
2023/03/20 09:07:06;;;;;;;;;5.00;4.50;;;;;10.72;68.76;100238.31;5113018;28;8828;-59
2023/03/20 09:09:34;;;;;;;;;5.00;5.00;;;;;10.68;68.67;100235.97;5113283;28;8831;-59
2023/03/20 09:12:02;;;;;;;;;3.00;3.00;;;;;10.69;68.92;100233.19;5117119;28;8831;-59
2023/03/20 09:14:30;;;;;;;;;7.75;6.50;;;;;10.67;68.74;100236.94;5117727;28;8842;-60
2023/03/20 09:16:58;;;;;;;;;3.25;3.25;;;;;10.74;68.56;100233.72;5116701;28;9521;-59
2023/03/20 09:19:25;;;;;;;;;6.00;6.00;;;;;10.89;68.15;100231.69;5115897;28;9596;-59
2023/03/20 09:21:53;;;;;;;;;5.25;4.50;;;;;11.01;68.16;100226.25;5116408;28;8816;-60
2023/03/20 09:24:21;;;;;;;;;5.25;4.75;;;;;11.02;68.35;100222.66;5115241;28;8987;-59
2023/03/20 09:26:50;;;;;;;;;6.00;5.50;;;;;11.04;68.19;100225.19;5114276;28;8847;-60
2023/03/20 09:29:18;;;;;;;;;3.75;3.75;;;;;11.03;67.78;100223.47;5112564;28;8836;-59
2023/03/20 09:31:45;;;;;;;;;5.50;4.75;;;;;11.01;68.11;100218.25;5112050;28;9509;-59
2023/03/20 09:34:13;;;;;;;;;7.75;6.50;;;;;10.99;68.02;100225.53;5110734;28;8836;-60
2023/03/20 09:36:41;;;;;;;;;4.50;3.00;;;;;10.94;68.13;100224.19;5110378;28;8852;-59
2023/03/20 09:39:09;;;;;;;;;5.75;5.50;;;;;10.93;67.49;100226.00;5110131;28;8869;-59
2023/03/20 09:41:37;;;;;;;;;6.25;4.50;;;;;10.91;67.82;100221.78;5111665;28;8854;-58
2023/03/20 09:44:23;;;;;;;;;8.00;6.75;;;;;10.86;68.02;100230.09;5111433;28;8837;-60
2023/03/20 09:46:51;;;;;;;;;6.75;6.75;;;;;10.86;68.23;100230.09;5110872;28;8844;-61
2023/03/20 09:49:19;;;;;;;;;9.00;7.50;;;;;10.86;67.50;100234.59;5113353;28;8836;-59
2023/03/20 09:51:47;;;;;;;;;8.00;7.50;;;;;10.88;67.98;100228.19;5113877;28;8820;-59
2023/03/20 09:54:15;;;;;;;;;11.00;8.75;;;;;10.90;67.78;100231.56;5114798;28;8827;-59
2023/03/20 09:56:43;;;;;;;;;6.25;6.00;;;;;10.90;67.41;100222.72;5114820;28;8889;-59
2023/03/20 09:59:11;;;;;;;;;7.00;7.00;;;;;10.91;67.60;100221.78;5114709;28;8852;-59
2023/03/20 10:01:40;;;;;;;;;5.75;4.00;;;;;10.97;67.60;100227.47;5115168;28;8847;-59
2023/03/20 10:04:08;;;;;;;;;9.75;9.00;;;;;11.04;67.05;100222.50;5115659;28;8824;-59
2023/03/20 10:06:36;;;;;;;;;7.00;6.75;;;;;11.11;67.18;100232.59;5115342;28;9533;-61
2023/03/20 10:09:04;;;;;;;;;6.75;6.00;;;;;11.17;66.54;100226.78;5115314;28;8966;-58
2023/03/20 10:11:33;;;;;;;;;7.00;7.00;;;;;11.13;66.50;100229.78;5115377;28;8866;-59
2023/03/20 10:14:02;;;;;;;;;4.50;4.50;;;;;11.03;66.62;100211.03;5116007;28;8867;-59
2023/03/20 10:16:30;;;;;;;;;6.25;4.00;;;;;10.98;66.67;100223.84;5115957;28;8851;-61
2023/03/20 10:18:58;;;;;;;;;7.25;7.25;;;;;10.95;66.12;100220.56;5115875;28;8860;-61
2023/03/20 10:21:25;;;;;;;;;6.00;6.00;;;;;10.94;66.60;100222.34;5115425;28;9591;-60
2023/03/20 10:23:54;;;;;;;;;6.25;5.00;;;;;10.94;66.15;100219.69;5115214;28;8844;-60
2023/03/20 10:26:22;;;;;;;;;9.00;7.50;;;;;10.98;66.16;100218.50;5115710;28;8966;-59
2023/03/20 10:28:51;;;;;;;;;12.50;11.50;;;;;11.05;66.26;100213.53;5114983;28;8840;-61
2023/03/20 10:31:18;;;;;;;;;9.75;8.00;;;;;11.16;66.05;100219.75;5115151;28;8843;-59
2023/03/20 10:33:46;;;;;;;;;8.00;6.50;;;;;11.25;65.87;100216.38;5114244;28;8851;-60
2023/03/20 10:36:15;;;;;;;;;9.00;9.00;;;;;11.31;65.54;100210.56;5113881;28;8933;-62
2023/03/20 10:38:43;;;;;;;;;9.00;8.50;;;;;11.35;65.26;100198.69;5113625;28;8845;-60
2023/03/20 10:41:11;;;;;;;;;9.50;8.50;;;;;11.38;65.68;100201.09;5113216;28;8840;-60
2023/03/20 10:43:39;;;;;;;;;9.75;9.00;;;;;11.34;65.50;100205.00;5113401;28;8854;-62
2023/03/20 10:46:12;;;;;;;;;6.25;6.25;;;;;11.33;64.87;100200.63;5113115;28;8836;-62
2023/03/20 10:48:40;;;;;;;;;6.25;4.50;;;;;11.26;65.25;100199.41;5113129;28;8911;-61
2023/03/20 10:51:09;;;;;;;;;2.00;1.00;;;;;11.25;65.89;100204.88;5112964;28;8874;-60
2023/03/20 10:53:37;;;;;;;;;7.00;6.00;;;;;11.26;65.28;100201.22;5112918;28;8835;-61
2023/03/20 10:56:05;;;;;;;;;7.75;7.25;;;;;11.29;65.65;100193.00;5111827;28;8933;-62
2023/03/20 10:58:33;;;;;;;;;3.00;1.00;;;;;11.31;65.40;100193.72;5111406;28;8828;-62
2023/03/20 11:01:02;;;;;;;;;0.00;0.00;;;;;11.31;65.57;100193.72;5111074;28;8862;-61
2023/03/20 11:03:30;;;;;;;;;3.75;1.75;;;;;11.35;65.07;100185.38;5110213;28;8851;-61
2023/03/20 11:05:58;;;;;;;;;6.00;6.00;;;;;11.45;64.67;100186.31;5111364;28;8928;-61
2023/03/20 11:08:36;;;;;;;;;7.00;6.25;;;;;11.52;64.93;100195.53;5109897;28;8828;-61
2023/03/20 11:11:05;;;;;;;;;6.50;5.50;;;;;11.57;65.06;100182.69;5110204;28;8823;-61
2023/03/20 11:13:33;;;;;;;;;6.67;6.67;;;;;11.56;64.26;100189.00;5112356;28;8824;-59
2023/03/20 11:16:01;;;;;;;;;7.00;6.00;;;;;11.51;64.06;100190.34;5112232;28;8840;-62
2023/03/20 11:18:29;;;;;;;;;6.75;6.50;;;;;11.49;64.38;100178.94;5113018;28;9532;-61
2023/03/20 11:20:57;;;;;;;;;6.00;5.00;;;;;11.53;64.38;100175.06;5112779;28;8850;-61
2023/03/20 11:23:25;;;;;;;;;6.00;4.50;;;;;11.61;64.30;100170.00;5113690;28;8827;-61
2023/03/20 11:25:53;;;;;;;;;6.00;6.00;;;;;11.62;63.91;100175.22;5113869;28;8835;-61
2023/03/20 11:28:21;;;;;;;;;5.00;4.50;;;;;11.59;63.94;100175.44;5112520;28;8840;-61
2023/03/20 11:30:49;;;;;;;;;5.25;4.25;;;;;11.49;64.20;100174.47;5112280;28;8834;-60
2023/03/20 11:33:31;;;;;;;;;3.75;3.00;;;;;11.43;63.94;100168.75;5111542;28;9006;-60
2023/03/20 11:36:00;;;;;;;;;6.25;6.25;;;;;11.42;63.73;100165.25;5112519;28;8846;-61
2023/03/20 11:38:28;;;;;;;;;6.00;6.00;;;;;11.50;63.82;100157.47;5112511;28;9182;-61
2023/03/20 11:40:56;;;;;;;;;3.75;3.75;;;;;11.57;64.38;100163.16;5112052;28;8874;-61
2023/03/20 11:43:24;;;;;;;;;6.75;6.00;;;;;11.64;63.60;100154.59;5111685;28;8840;-62
2023/03/20 11:45:53;;;;;;;;;5.00;4.00;;;;;11.75;63.09;100162.56;5111730;28;8835;-60